createdAt,value
2022-08-17T00:00:13.626Z,3.10
2022-08-17T00:03:17.374Z,3.00
2022-08-17T00:05:56.165Z,2.97
2022-08-17T00:08:26.795Z,2.70
2022-08-17T00:10:54.902Z,2.67
2022-08-17T00:13:34.050Z,2.95
2022-08-17T00:16:08.946Z,2.80
2022-08-17T00:19:06.223Z,3.17
2022-08-17T00:21:25.098Z,3.40
2022-08-17T00:23:52.351Z,2.85
2022-08-17T00:26:43.512Z,3.20
2022-08-17T00:29:08.117Z,2.83
2022-08-17T00:31:35.631Z,3.00
2022-08-17T00:34:03.573Z,3.10
2022-08-17T00:36:30.352Z,2.97
2022-08-17T00:38:56.875Z,3.13
2022-08-17T00:41:26.091Z,3.20
2022-08-17T00:43:56.543Z,2.97
2022-08-17T00:46:32.382Z,3.17
2022-08-17T00:48:59.296Z,3.00
2022-08-17T00:51:33.276Z,3.05
2022-08-17T00:54:14.065Z,2.90
2022-08-17T00:56:47.800Z,2.50
2022-08-17T00:59:17.807Z,2.97
2022-08-17T01:01:45.271Z,2.85
2022-08-17T01:04:13.675Z,2.60
2022-08-17T01:06:42.099Z,2.90
2022-08-17T01:09:09.055Z,2.80
2022-08-17T01:11:37.181Z,3.50
2022-08-17T01:14:04.072Z,3.00
2022-08-17T01:16:32.394Z,2.60
2022-08-17T01:19:03.373Z,2.92
2022-08-17T01:21:44.274Z,2.90
2022-08-17T01:24:10.865Z,2.60
2022-08-17T01:26:41.193Z,2.92
2022-08-17T01:29:08.092Z,2.55
2022-08-17T01:31:43.147Z,3.08
2022-08-17T01:34:11.527Z,2.78
2022-08-17T01:36:41.739Z,2.60
2022-08-17T01:39:15.313Z,2.60
2022-08-17T01:41:43.069Z,3.00
2022-08-17T01:44:11.445Z,2.80
2022-08-17T01:46:38.320Z,2.70
2022-08-17T01:49:10.730Z,2.80
2022-08-17T01:51:37.770Z,2.70
2022-08-17T01:54:10.246Z,3.17
2022-08-17T01:56:40.691Z,2.90
2022-08-17T01:59:07.469Z,3.45
2022-08-17T02:01:35.672Z,2.85
2022-08-17T02:04:03.190Z,2.80
2022-08-17T02:06:44.818Z,2.80
2022-08-17T02:09:16.639Z,2.85
2022-08-17T02:11:44.387Z,3.03
2022-08-17T02:14:12.031Z,3.22
2022-08-17T02:16:40.563Z,3.45
2022-08-17T02:19:09.940Z,3.60
2022-08-17T02:21:38.081Z,3.75
2022-08-17T02:24:08.756Z,3.28
2022-08-17T02:26:36.447Z,3.38
2022-08-17T02:29:04.226Z,4.10
2022-08-17T02:31:31.200Z,3.60
2022-08-17T02:34:03.644Z,4.00
2022-08-17T02:36:31.947Z,3.92
2022-08-17T02:39:00.283Z,3.67
2022-08-17T02:41:27.398Z,3.83
2022-08-17T02:43:53.950Z,4.30
2022-08-17T02:46:20.575Z,4.47
2022-08-17T02:48:47.431Z,4.70
2022-08-17T02:51:14.255Z,3.90
2022-08-17T02:53:40.976Z,4.75
2022-08-17T02:56:07.631Z,4.68
2022-08-17T02:58:35.783Z,4.65
2022-08-17T03:01:05.238Z,4.93
2022-08-17T03:03:32.171Z,5.40
2022-08-17T03:05:59.043Z,5.47
2022-08-17T03:08:25.661Z,5.78
2022-08-17T03:10:52.652Z,6.25
2022-08-17T03:13:19.443Z,5.82
2022-08-17T03:15:47.382Z,6.55
2022-08-17T03:18:19.375Z,6.32
2022-08-17T03:20:54.718Z,6.35
2022-08-17T03:23:24.018Z,6.72
2022-08-17T03:25:52.985Z,7.20
2022-08-17T03:28:20.204Z,7.85
2022-08-17T03:30:47.034Z,7.68
2022-08-17T03:33:13.760Z,7.80
2022-08-17T03:35:40.958Z,8.20
2022-08-17T03:38:10.270Z,8.02
2022-08-17T03:40:57.975Z,8.73
2022-08-17T03:43:25.298Z,8.13
2022-08-17T03:46:27.004Z,7.70
2022-08-17T03:49:14.581Z,8.30
2022-08-17T03:51:59.697Z,8.15
2022-08-17T03:54:44.582Z,7.88
2022-08-17T03:57:12.527Z,8.15
2022-08-17T03:59:39.734Z,8.75
2022-08-17T04:02:16.092Z,7.95
2022-08-17T04:04:42.728Z,8.75
2022-08-17T04:07:09.499Z,8.50
2022-08-17T04:09:36.699Z,8.55
2022-08-17T04:12:05.264Z,9.23
2022-08-17T04:14:39.280Z,8.88
2022-08-17T04:17:24.795Z,9.13
2022-08-17T04:19:52.175Z,8.88
2022-08-17T04:22:33.100Z,9.32
2022-08-17T04:27:42.370Z,9.93
2022-08-17T04:30:09.676Z,10.23
2022-08-17T04:33:00.440Z,11.77
2022-08-17T04:35:37.042Z,9.75
2022-08-17T04:38:04.212Z,10.75
2022-08-17T04:40:49.327Z,11.43
2022-08-17T04:43:19.325Z,12.20
2022-08-17T04:45:56.289Z,11.80
2022-08-17T04:48:29.944Z,12.02
2022-08-17T04:51:07.459Z,12.07
2022-08-17T04:53:34.176Z,12.10
2022-08-17T04:56:00.796Z,12.05
2022-08-17T04:58:27.577Z,11.88
2022-08-17T05:00:54.158Z,11.50
2022-08-17T05:03:20.743Z,10.05
2022-08-17T05:05:49.691Z,10.70
2022-08-17T05:08:18.672Z,11.32
2022-08-17T05:10:46.085Z,10.63
2022-08-17T05:13:17.201Z,10.32
2022-08-17T05:15:47.602Z,10.10
2022-08-17T05:18:15.766Z,9.70
2022-08-17T05:20:43.070Z,10.48
2022-08-17T05:23:12.840Z,9.65
2022-08-17T05:25:47.771Z,9.48
2022-08-17T05:28:15.393Z,8.75
2022-08-17T05:30:43.265Z,8.75
2022-08-17T05:33:11.218Z,8.65
2022-08-17T05:35:42.565Z,8.57
2022-08-17T05:38:09.779Z,8.02
2022-08-17T05:40:37.517Z,8.50
2022-08-17T05:43:14.756Z,8.07
2022-08-17T05:45:55.202Z,7.30
2022-08-17T05:48:39.632Z,7.85
2022-08-17T05:51:12.870Z,9.35
2022-08-17T05:53:51.458Z,8.13
2022-08-17T05:56:43.884Z,8.98
2022-08-17T05:59:19.388Z,10.27
2022-08-17T06:02:06.713Z,10.98
2022-08-17T06:04:57.566Z,10.45
2022-08-17T06:07:27.245Z,8.60
2022-08-17T06:10:22.032Z,10.00
2022-08-17T06:12:58.755Z,9.52
2022-08-17T06:15:46.674Z,9.63
2022-08-17T06:18:18.590Z,9.07
2022-08-17T06:20:49.067Z,8.60
2022-08-17T06:23:25.810Z,8.63
2022-08-17T06:25:58.384Z,9.10
2022-08-17T06:28:50.279Z,8.70
2022-08-17T06:31:22.559Z,8.35
2022-08-17T06:33:50.307Z,8.93
2022-08-17T06:36:48.305Z,8.65
2022-08-17T06:39:31.419Z,8.82
2022-08-17T06:43:02.779Z,8.88
2022-08-17T06:45:07.127Z,9.13
2022-08-17T06:47:51.355Z,9.82
2022-08-17T06:50:27.700Z,9.82
2022-08-17T06:53:03.308Z,10.10
2022-08-17T06:55:38.146Z,10.27
2022-08-17T06:58:16.403Z,10.57
2022-08-17T07:00:47.439Z,9.43
2022-08-17T07:03:32.429Z,9.82
2022-08-17T07:06:08.504Z,8.95
2022-08-17T07:08:59.113Z,9.88
2022-08-17T07:11:49.940Z,10.30
2022-08-17T07:14:51.784Z,10.35
2022-08-17T07:17:20.418Z,10.20
2022-08-17T07:19:49.812Z,9.90
2022-08-17T07:22:22.475Z,9.70
2022-08-17T07:24:59.636Z,10.52
2022-08-17T07:27:31.154Z,10.10
2022-08-17T07:30:10.895Z,10.55
2022-08-17T07:32:45.380Z,9.40
2022-08-17T07:35:17.740Z,10.70
2022-08-17T07:38:25.967Z,11.18
2022-08-17T07:41:05.965Z,10.30
2022-08-17T07:43:39.987Z,11.27
2022-08-17T07:46:45.833Z,10.60
2022-08-17T07:49:15.316Z,10.95
2022-08-17T07:51:45.617Z,9.90
2022-08-17T07:54:15.334Z,10.05
2022-08-17T07:56:46.904Z,9.02
2022-08-17T07:59:13.402Z,11.10
2022-08-17T08:01:44.420Z,10.40
2022-08-17T08:04:37.581Z,10.07
2022-08-17T08:07:25.649Z,9.50
2022-08-17T08:12:33.423Z,9.07
2022-08-17T08:15:09.327Z,8.48
2022-08-17T08:17:47.363Z,9.35
2022-08-17T08:20:50.982Z,8.77
2022-08-17T08:23:34.992Z,8.93
2022-08-17T08:26:27.256Z,9.00
2022-08-17T08:29:28.408Z,8.73
2022-08-17T08:31:56.271Z,9.25
2022-08-17T08:35:03.779Z,8.27
2022-08-17T08:37:37.993Z,11.23
2022-08-17T08:40:17.596Z,8.35
2022-08-17T08:42:56.486Z,7.60
2022-08-17T08:45:33.016Z,7.60
2022-08-17T08:48:05.899Z,8.15
2022-08-17T08:50:42.812Z,7.70
2022-08-17T08:53:41.700Z,7.50
2022-08-17T08:56:26.952Z,6.95
2022-08-17T08:58:59.410Z,7.20
2022-08-17T09:01:47.311Z,6.90
2022-08-17T09:04:25.021Z,6.80
2022-08-17T09:07:01.415Z,6.43
2022-08-17T09:09:46.791Z,6.82
2022-08-17T09:12:36.843Z,6.57
2022-08-17T09:15:14.486Z,6.22
2022-08-17T09:19:02.377Z,7.25
2022-08-17T09:21:38.305Z,7.38
2022-08-17T09:24:20.695Z,7.50
2022-08-17T09:27:15.099Z,7.18
2022-08-17T09:29:52.037Z,11.38
2022-08-17T09:32:28.694Z,7.80
2022-08-17T09:35:01.965Z,7.32
2022-08-17T09:37:53.391Z,6.70
2022-08-17T09:40:22.981Z,6.30
2022-08-17T09:43:12.591Z,6.60
2022-08-17T09:45:45.466Z,6.18
2022-08-17T09:48:21.658Z,5.05
2022-08-17T09:51:13.616Z,5.07
2022-08-17T09:53:40.784Z,4.70
2022-08-17T09:56:47.045Z,5.78
2022-08-17T10:02:20.279Z,5.30
2022-08-17T10:04:57.104Z,5.32
2022-08-17T10:07:52.594Z,5.72
2022-08-17T10:10:29.675Z,6.07
2022-08-17T10:13:01.943Z,5.80
2022-08-17T10:15:56.357Z,5.85
2022-08-17T10:18:35.230Z,5.20
2022-08-17T10:21:29.302Z,6.40
2022-08-17T10:24:39.549Z,6.15
2022-08-17T10:27:45.097Z,5.53
2022-08-17T10:30:17.970Z,5.10
2022-08-17T10:32:55.917Z,4.45
2022-08-17T10:36:12.237Z,4.72
2022-08-17T10:38:58.691Z,5.53
2022-08-17T10:41:27.990Z,5.00
2022-08-17T10:44:40.456Z,5.32
2022-08-17T10:47:08.856Z,4.93
2022-08-17T10:49:38.812Z,5.30
2022-08-17T10:52:20.426Z,5.25
2022-08-17T10:54:49.109Z,5.43
2022-08-17T10:57:33.951Z,5.00
2022-08-17T11:00:05.090Z,5.20
2022-08-17T11:02:39.659Z,4.95
2022-08-17T11:05:43.782Z,4.82
2022-08-17T11:08:13.713Z,5.30
2022-08-17T11:11:01.211Z,4.10
2022-08-17T11:13:45.799Z,4.05
2022-08-17T11:16:30.974Z,4.10
2022-08-17T11:19:08.538Z,4.00
2022-08-17T11:22:09.223Z,4.55
2022-08-17T11:24:37.153Z,3.35
2022-08-17T11:27:12.322Z,3.17
2022-08-17T11:29:59.528Z,4.10
2022-08-17T11:32:28.273Z,4.32
2022-08-17T11:35:22.914Z,4.68
2022-08-17T11:38:14.031Z,3.55
2022-08-17T11:41:04.222Z,4.72
2022-08-17T11:43:46.192Z,4.80
2022-08-17T11:46:12.835Z,4.53
2022-08-17T11:49:21.150Z,4.68
2022-08-17T11:52:10.173Z,5.78
2022-08-17T11:54:47.508Z,5.25
2022-08-17T11:57:26.396Z,5.32
2022-08-17T12:00:07.348Z,5.30
2022-08-17T12:02:38.931Z,5.22
2022-08-17T12:07:42.488Z,4.45
2022-08-17T12:10:12.240Z,4.53
2022-08-17T12:12:44.099Z,5.30
2022-08-17T12:15:21.487Z,4.85
2022-08-17T12:17:56.518Z,3.97
2022-08-17T12:20:35.313Z,4.20
2022-08-17T12:23:35.991Z,4.40
2022-08-17T12:26:17.362Z,4.22
2022-08-17T12:28:46.868Z,3.95
2022-08-17T12:31:20.514Z,3.90
2022-08-17T12:33:51.714Z,4.55
2022-08-17T12:36:26.126Z,4.20
2022-08-17T12:39:12.872Z,4.35
2022-08-17T12:41:47.149Z,3.70
2022-08-17T12:44:13.743Z,4.00
2022-08-17T12:46:59.103Z,4.00
2022-08-17T12:49:37.250Z,3.63
2022-08-17T12:52:25.729Z,3.58
2022-08-17T12:54:59.925Z,4.18
2022-08-17T12:57:34.185Z,3.95
2022-08-17T13:00:07.880Z,4.10
2022-08-17T13:03:01.679Z,3.65
2022-08-17T13:05:36.179Z,3.78
2022-08-17T13:08:14.193Z,3.42
2022-08-17T13:10:41.239Z,3.58
2022-08-17T13:13:26.774Z,3.00
2022-08-17T13:15:57.266Z,3.40
2022-08-17T13:18:39.282Z,3.03
2022-08-17T13:21:12.333Z,2.80
2022-08-17T13:23:39.044Z,3.38
2022-08-17T13:26:17.685Z,3.20
2022-08-17T13:28:49.727Z,3.22
2022-08-17T13:31:28.483Z,3.25
2022-08-17T13:34:25.298Z,3.05
2022-08-17T13:37:32.483Z,3.05
2022-08-17T13:40:02.451Z,3.35
2022-08-17T13:42:53.789Z,3.05
2022-08-17T13:45:39.406Z,3.08
2022-08-17T13:48:12.352Z,2.83
2022-08-17T13:51:03.985Z,3.10
2022-08-17T13:53:32.939Z,2.95
2022-08-17T13:56:38.008Z,2.80
2022-08-17T13:59:08.081Z,2.50
2022-08-17T14:01:34.729Z,2.67
2022-08-17T14:04:05.063Z,2.35
2022-08-17T14:06:53.844Z,3.00
2022-08-17T14:09:24.830Z,3.00
2022-08-17T14:11:52.920Z,2.97
2022-08-17T14:14:20.016Z,2.90
2022-08-17T14:16:46.611Z,2.92
2022-08-17T14:19:14.425Z,2.90
2022-08-17T14:21:44.282Z,2.75
2022-08-17T14:24:24.140Z,2.83
2022-08-17T14:26:52.316Z,2.97
2022-08-17T14:29:20.746Z,2.72
2022-08-17T14:31:49.646Z,3.10
2022-08-17T14:34:20.836Z,3.30
2022-08-17T14:36:48.329Z,3.50
2022-08-17T14:39:16.779Z,3.05
2022-08-17T14:41:43.601Z,3.10
2022-08-17T14:44:13.494Z,2.97
2022-08-17T14:46:44.829Z,2.97
2022-08-17T14:51:44.130Z,2.72
2022-08-17T14:54:34.012Z,3.20
2022-08-17T14:57:23.154Z,3.13
2022-08-17T14:59:54.821Z,3.10
2022-08-17T15:02:30.046Z,3.03
2022-08-17T15:05:05.291Z,3.20
2022-08-17T15:07:31.975Z,3.10
2022-08-17T15:10:02.252Z,2.90
2022-08-17T15:12:33.631Z,3.00
2022-08-17T15:15:04.828Z,2.90
2022-08-17T15:17:44.412Z,3.25
2022-08-17T15:20:23.846Z,2.80
2022-08-17T15:22:54.974Z,2.58
2022-08-17T15:25:22.424Z,2.50
2022-08-17T15:27:49.555Z,2.65
2022-08-17T15:30:16.772Z,3.03
2022-08-17T15:32:51.405Z,3.03
2022-08-17T15:35:27.434Z,2.78
2022-08-17T15:37:57.355Z,3.10
2022-08-17T15:40:23.903Z,2.90
2022-08-17T15:42:51.218Z,3.22
2022-08-17T15:45:24.555Z,2.83
2022-08-17T15:47:52.532Z,2.90
2022-08-17T15:50:19.493Z,3.00
2022-08-17T15:52:47.529Z,2.97
2022-08-17T15:55:15.210Z,3.13
2022-08-17T15:57:42.128Z,3.08
2022-08-17T16:00:09.781Z,3.00
2022-08-17T16:03:44.584Z,3.30
2022-08-17T16:05:25.253Z,3.05
2022-08-17T16:07:53.256Z,3.40
2022-08-17T16:10:21.087Z,2.75
2022-08-17T16:12:49.691Z,3.33
2022-08-17T16:15:18.171Z,3.28
2022-08-17T16:17:45.075Z,3.40
2022-08-17T16:20:20.120Z,3.15
2022-08-17T16:22:49.334Z,2.85
2022-08-17T16:25:52.205Z,3.40
2022-08-17T16:28:17.596Z,2.75
2022-08-17T16:30:44.410Z,2.90
2022-08-17T16:33:11.677Z,2.97
2022-08-17T16:35:38.724Z,2.72
2022-08-17T16:38:07.266Z,2.80
2022-08-17T16:40:36.061Z,2.80
2022-08-17T16:43:07.049Z,2.83
2022-08-17T16:45:36.846Z,2.80
2022-08-17T16:48:04.443Z,2.97
2022-08-17T16:50:32.005Z,2.80
2022-08-17T16:53:11.642Z,2.72
2022-08-17T16:55:38.638Z,2.95
2022-08-17T16:58:06.863Z,3.03
2022-08-17T17:00:34.074Z,2.88
2022-08-17T17:03:19.049Z,2.97
2022-08-17T17:06:14.321Z,2.70
2022-08-17T17:08:50.774Z,2.70
2022-08-17T17:11:26.973Z,2.80
2022-08-17T17:14:00.008Z,2.92
2022-08-17T17:16:48.880Z,3.15
2022-08-17T17:19:35.017Z,2.83
2022-08-17T17:22:29.493Z,2.80
2022-08-17T17:25:26.425Z,3.03
2022-08-17T17:28:25.244Z,3.25
2022-08-17T17:31:03.800Z,3.33
2022-08-17T17:34:00.603Z,3.15
2022-08-17T17:36:45.350Z,3.13
2022-08-17T17:39:36.434Z,3.30
2022-08-17T17:42:07.724Z,3.07
2022-08-17T17:44:41.050Z,3.05
2022-08-17T17:47:07.782Z,2.88
2022-08-17T17:49:38.265Z,3.22
2022-08-17T17:52:19.418Z,3.20
2022-08-17T17:54:48.915Z,2.72
2022-08-17T17:57:34.143Z,3.03
2022-08-17T18:00:13.785Z,3.15
2022-08-17T18:02:55.229Z,3.47
2022-08-17T18:05:36.921Z,3.92
2022-08-17T18:08:10.948Z,3.95
2022-08-17T18:10:49.055Z,3.17
2022-08-17T18:13:50.142Z,3.80
2022-08-17T18:16:18.355Z,3.20
2022-08-17T18:18:50.032Z,2.85
2022-08-17T18:23:58.716Z,2.97
2022-08-17T18:26:34.680Z,2.53
2022-08-17T18:29:02.297Z,2.72
2022-08-17T18:31:29.040Z,3.10
2022-08-17T18:34:51.494Z,3.85
2022-08-17T18:37:13.250Z,3.00
2022-08-17T18:39:42.831Z,2.73
2022-08-17T18:42:26.044Z,2.47
2022-08-17T18:44:55.296Z,2.90
2022-08-17T18:47:26.673Z,2.70
2022-08-17T18:50:02.365Z,3.28
2022-08-17T18:52:33.707Z,3.58
2022-08-17T18:55:29.086Z,3.00
2022-08-17T18:57:59.667Z,3.05
2022-08-17T19:00:41.434Z,3.05
2022-08-17T19:03:20.191Z,3.05
2022-08-17T19:05:55.290Z,2.72
2022-08-17T19:08:24.555Z,3.08
2022-08-17T19:11:26.127Z,3.00
2022-08-17T19:13:58.472Z,2.88
2022-08-17T19:16:50.407Z,3.10
2022-08-17T19:19:20.008Z,3.10
2022-08-17T19:21:53.296Z,3.00
2022-08-17T19:24:21.539Z,2.90
2022-08-17T19:27:06.178Z,2.85
2022-08-17T19:29:57.616Z,2.55
2022-08-17T19:32:34.550Z,2.83
2022-08-17T19:35:03.618Z,3.00
2022-08-17T19:38:12.720Z,2.88
2022-08-17T19:40:52.950Z,2.80
2022-08-17T19:43:47.337Z,3.10
2022-08-17T19:46:18.677Z,3.15
2022-08-17T19:49:33.403Z,3.22
2022-08-17T19:52:07.195Z,3.20
2022-08-17T19:54:52.503Z,3.80
2022-08-17T19:57:51.040Z,3.08
2022-08-17T20:00:19.452Z,3.30
2022-08-17T20:02:45.928Z,3.10
2022-08-17T20:05:18.245Z,3.10
2022-08-17T20:08:04.070Z,2.90
2022-08-17T20:10:47.263Z,3.00
2022-08-17T20:13:47.472Z,3.00
2022-08-17T20:16:14.036Z,3.40
2022-08-17T20:18:50.719Z,3.40
2022-08-17T20:21:29.612Z,3.10
2022-08-17T20:24:21.255Z,3.20
2022-08-17T20:26:58.105Z,2.92
2022-08-17T20:29:47.257Z,3.20
2022-08-17T20:32:26.868Z,3.25
2022-08-17T20:35:20.950Z,3.20
2022-08-17T20:38:33.762Z,3.22
2022-08-17T20:41:01.047Z,3.08
2022-08-17T20:43:33.579Z,3.38
2022-08-17T20:46:19.501Z,3.00
2022-08-17T20:48:50.597Z,3.40
2022-08-17T20:51:27.140Z,3.00
2022-08-17T20:53:53.635Z,2.78
2022-08-17T20:56:46.455Z,2.80
2022-08-17T20:59:25.886Z,3.08
2022-08-17T21:02:23.634Z,3.17
2022-08-17T21:04:50.128Z,3.20
2022-08-17T21:07:42.969Z,3.50
2022-08-17T21:10:13.929Z,3.35
2022-08-17T21:12:42.038Z,3.63
2022-08-17T21:15:28.494Z,3.28
2022-08-17T21:18:12.416Z,3.10
2022-08-17T21:21:03.252Z,3.50
2022-08-17T21:24:00.308Z,3.15
2022-08-17T21:26:53.745Z,3.42
2022-08-17T21:29:31.730Z,3.30
2022-08-17T21:31:59.529Z,3.03
2022-08-17T21:34:44.663Z,3.70
2022-08-17T21:37:20.566Z,3.30
2022-08-17T21:39:58.332Z,3.38
2022-08-17T21:42:31.686Z,3.30
2022-08-17T21:45:10.893Z,3.10
2022-08-17T21:47:43.670Z,3.30
2022-08-17T21:50:20.311Z,3.83
2022-08-17T21:52:48.950Z,3.70
2022-08-17T21:55:28.319Z,3.70
2022-08-17T21:58:12.183Z,3.42
2022-08-17T22:00:44.351Z,3.50
2022-08-17T22:03:24.350Z,3.33
2022-08-17T22:05:51.484Z,3.80
2022-08-17T22:08:21.947Z,3.30
2022-08-17T22:10:51.152Z,3.42
2022-08-17T22:13:17.846Z,3.83
2022-08-17T22:16:28.547Z,3.55
2022-08-17T22:18:58.338Z,3.28
2022-08-17T22:21:25.428Z,3.60
2022-08-17T22:24:05.185Z,3.30
2022-08-17T22:26:59.675Z,3.47
2022-08-17T22:29:42.697Z,3.50
2022-08-17T22:32:09.928Z,3.97
2022-08-17T22:34:38.504Z,3.47
2022-08-17T22:37:27.935Z,3.88
2022-08-17T22:39:59.175Z,3.58
2022-08-17T22:42:25.881Z,3.85
2022-08-17T22:44:54.087Z,4.25
2022-08-17T22:47:32.455Z,4.22
2022-08-17T22:50:01.747Z,3.60
2022-08-17T22:53:01.068Z,4.03
2022-08-17T22:55:49.449Z,3.97
2022-08-17T22:58:37.488Z,3.53
2022-08-17T23:01:25.579Z,3.67
2022-08-17T23:03:59.368Z,3.85
2022-08-17T23:06:25.992Z,3.75
2022-08-17T23:08:56.353Z,4.10
2022-08-17T23:11:36.933Z,3.80
2022-08-17T23:14:14.599Z,3.95
2022-08-17T23:16:42.727Z,3.33
2022-08-17T23:19:15.538Z,3.50
2022-08-17T23:21:44.917Z,3.92
2022-08-17T23:24:19.859Z,3.78
2022-08-17T23:26:46.626Z,3.80
2022-08-17T23:29:13.352Z,3.70
2022-08-17T23:31:40.468Z,3.28
2022-08-17T23:34:11.420Z,3.65
2022-08-17T23:37:06.664Z,4.47
2022-08-17T23:39:34.539Z,4.35
2022-08-17T23:42:05.335Z,4.00
2022-08-17T23:44:32.940Z,4.20
2022-08-17T23:46:59.660Z,4.10
2022-08-17T23:49:26.341Z,3.70
2022-08-17T23:51:56.583Z,3.97
2022-08-17T23:54:33.630Z,4.85
2022-08-17T23:57:04.940Z,3.38
2022-08-17T23:59:32.964Z,3.53
